createdAt,value
2023-02-03T00:00:49.164Z,1.31
2023-02-03T00:03:49.134Z,1.32
2023-02-03T00:06:49.206Z,1.18
2023-02-03T00:09:49.152Z,1.08
2023-02-03T00:12:49.200Z,0.90
2023-02-03T00:15:49.129Z,0.96
2023-02-03T00:18:49.195Z,0.96
2023-02-03T00:21:49.180Z,1.17
2023-02-03T00:24:49.172Z,1.16
2023-02-03T00:27:49.220Z,1.11
2023-02-03T00:30:49.142Z,1.23
2023-02-03T00:33:49.177Z,1.08
2023-02-03T00:36:50.147Z,1.28
2023-02-03T00:39:50.200Z,1.41
2023-02-03T00:42:50.140Z,1.44
2023-02-03T00:45:50.211Z,1.22
2023-02-03T00:48:50.145Z,1.24
2023-02-03T00:51:50.155Z,1.08
2023-02-03T00:54:50.154Z,1.10
2023-02-03T00:57:50.207Z,1.04
2023-02-03T01:00:50.219Z,1.07
2023-02-03T01:03:52.167Z,1.34
2023-02-03T01:06:54.193Z,1.56
2023-02-03T01:09:54.167Z,1.46
2023-02-03T01:12:54.156Z,1.42
2023-02-03T01:16:01.172Z,1.63
2023-02-03T01:19:01.181Z,1.69
2023-02-03T01:22:01.161Z,1.82
2023-02-03T01:25:01.179Z,1.64
2023-02-03T01:28:01.277Z,1.65
2023-02-03T01:31:01.293Z,1.65
2023-02-03T01:34:01.146Z,1.46
2023-02-03T01:37:01.187Z,1.45
2023-02-03T01:40:01.189Z,1.46
2023-02-03T01:43:01.190Z,1.42
2023-02-03T01:46:01.244Z,1.32
2023-02-03T01:49:01.136Z,1.13
2023-02-03T01:52:01.155Z,1.10
2023-02-03T01:55:02.144Z,0.99
2023-02-03T01:58:15.189Z,1.09
2023-02-03T02:01:15.191Z,1.00
2023-02-03T02:04:17.184Z,0.95
2023-02-03T02:07:17.159Z,0.79
2023-02-03T02:10:18.184Z,0.78
2023-02-03T02:13:18.164Z,0.81
2023-02-03T02:16:21.225Z,0.70
2023-02-03T02:19:30.172Z,0.83
2023-02-03T02:22:47.160Z,0.61
2023-02-03T02:25:56.190Z,0.72
2023-02-03T02:29:11.156Z,0.74
2023-02-03T02:32:20.182Z,0.76
2023-02-03T02:35:39.156Z,0.89
2023-02-03T02:39:17.156Z,0.99
2023-02-03T02:42:28.185Z,1.11
2023-02-03T02:45:44.138Z,1.11
2023-02-03T02:48:50.161Z,1.10
2023-02-03T02:51:52.169Z,0.79
2023-02-03T02:54:55.184Z,0.56
2023-02-03T02:57:56.176Z,0.53
2023-02-03T03:00:57.203Z,0.34
2023-02-03T03:03:57.173Z,0.37
2023-02-03T03:07:02.157Z,0.53
2023-02-03T03:10:11.174Z,0.34
2023-02-03T03:13:17.141Z,0.81
2023-02-03T03:16:19.247Z,0.77
2023-02-03T03:19:29.131Z,0.59
2023-02-03T03:22:30.157Z,0.67
2023-02-03T03:25:32.161Z,0.70
2023-02-03T03:28:39.189Z,0.73
2023-02-03T03:31:39.240Z,0.64
2023-02-03T03:34:39.176Z,0.72
2023-02-03T03:37:52.131Z,0.65
2023-02-03T03:40:55.143Z,0.60
2023-02-03T03:43:57.181Z,0.31
2023-02-03T03:47:02.191Z,0.52
2023-02-03T03:50:03.167Z,0.42
2023-02-03T03:53:03.145Z,0.48
2023-02-03T03:56:05.173Z,0.32
2023-02-03T03:59:06.157Z,0.16
2023-02-03T04:02:06.192Z,-0.18
2023-02-03T04:05:07.163Z,-0.06
2023-02-03T04:08:07.176Z,-0.31
2023-02-03T04:11:07.163Z,-0.54
2023-02-03T04:14:07.150Z,-0.50
2023-02-03T04:17:07.147Z,-0.57
2023-02-03T04:20:07.144Z,-0.68
2023-02-03T04:23:07.188Z,-0.89
2023-02-03T04:26:07.131Z,-0.74
2023-02-03T04:29:07.191Z,-0.74
2023-02-03T04:32:07.213Z,-0.86
2023-02-03T04:35:07.168Z,-0.91
2023-02-03T04:38:07.115Z,-1.14
2023-02-03T04:41:07.132Z,-1.23
2023-02-03T04:44:07.161Z,-0.94
2023-02-03T04:47:07.128Z,-1.17
2023-02-03T04:50:07.121Z,-0.97
2023-02-03T04:53:08.166Z,-1.15
2023-02-03T04:56:08.113Z,-1.06
2023-02-03T04:59:08.158Z,-1.07
2023-02-03T05:02:08.154Z,-1.10
2023-02-03T05:05:08.181Z,-1.27
2023-02-03T05:08:08.153Z,-1.14
2023-02-03T05:11:08.170Z,-1.13
2023-02-03T05:14:08.182Z,-1.07
2023-02-03T05:17:08.119Z,-1.12
2023-02-03T05:20:08.172Z,-1.15
2023-02-03T05:23:08.145Z,-1.08
2023-02-03T05:26:08.135Z,-1.25
2023-02-03T05:29:08.115Z,-1.22
2023-02-03T05:32:08.237Z,-1.26
2023-02-03T05:35:08.125Z,-1.35
2023-02-03T05:38:08.172Z,-1.50
2023-02-03T05:41:26.131Z,-1.27
2023-02-03T05:44:26.196Z,-1.43
2023-02-03T05:47:26.164Z,-1.49
2023-02-03T05:50:26.384Z,-1.40
2023-02-03T05:53:33.124Z,-1.53
2023-02-03T05:56:33.110Z,-1.36
2023-02-03T05:59:33.111Z,-1.33
2023-02-03T06:02:33.109Z,-1.36
2023-02-03T06:05:33.131Z,-1.36
2023-02-03T06:08:35.107Z,-1.37
2023-02-03T06:11:35.121Z,-1.31
2023-02-03T06:14:35.111Z,-1.34
2023-02-03T06:17:35.118Z,-1.33
2023-02-03T06:20:35.148Z,-1.32
2023-02-03T06:23:35.181Z,-0.92
2023-02-03T06:26:35.109Z,-0.88
2023-02-03T06:29:35.185Z,-0.97
2023-02-03T06:32:35.148Z,-1.03
2023-02-03T06:35:35.150Z,-1.10
2023-02-03T06:38:35.147Z,-1.02
2023-02-03T06:41:37.143Z,-0.90
2023-02-03T06:44:37.168Z,-0.82
2023-02-03T06:47:40.171Z,-0.65
2023-02-03T06:50:40.181Z,-0.44
2023-02-03T06:53:41.126Z,-0.15
2023-02-03T06:56:41.143Z,-0.07
2023-02-03T06:59:41.193Z,0.07
2023-02-03T07:02:41.234Z,0.12
2023-02-03T07:05:44.152Z,-0.03
2023-02-03T07:08:44.139Z,0.06
2023-02-03T07:11:44.138Z,0.09
2023-02-03T07:14:46.151Z,0.21
2023-02-03T07:17:46.143Z,0.29
2023-02-03T07:20:46.125Z,0.52
2023-02-03T07:23:46.157Z,0.58
2023-02-03T07:26:46.867Z,0.84
2023-02-03T07:29:47.202Z,1.04
2023-02-03T07:32:47.555Z,1.46
2023-02-03T07:35:47.152Z,1.73
2023-02-03T07:38:47.123Z,1.89
2023-02-03T07:41:52.580Z,2.27
2023-02-03T07:44:54.156Z,2.47
2023-02-03T07:47:56.137Z,2.69
2023-02-03T07:50:57.214Z,2.82
2023-02-03T07:53:57.199Z,3.01
2023-02-03T07:56:57.124Z,3.14
2023-02-03T07:59:57.175Z,3.04
2023-02-03T08:03:05.138Z,3.09
2023-02-03T08:06:05.097Z,3.50
2023-02-03T08:09:05.130Z,3.56
2023-02-03T08:12:05.149Z,3.46
2023-02-03T08:15:05.167Z,3.65
2023-02-03T08:18:06.109Z,3.65
2023-02-03T08:21:06.119Z,3.62
2023-02-03T08:24:06.119Z,3.87
2023-02-03T08:27:07.142Z,3.84
2023-02-03T08:30:07.116Z,4.01
2023-02-03T08:33:07.165Z,4.02
2023-02-03T08:36:08.152Z,4.31
2023-02-03T08:39:08.109Z,4.12
2023-02-03T08:42:08.192Z,4.16
2023-02-03T08:45:08.127Z,4.20
2023-02-03T08:48:13.265Z,4.16
2023-02-03T08:51:15.406Z,4.39
2023-02-03T08:54:18.779Z,4.48
2023-02-03T08:57:19.149Z,4.39
2023-02-03T09:00:23.110Z,4.63
2023-02-03T09:03:23.136Z,4.75
2023-02-03T09:09:47.907Z,4.48
2023-02-03T09:12:51.271Z,4.95
2023-02-03T09:15:54.150Z,4.82
2023-02-03T09:18:55.131Z,4.37
2023-02-03T09:21:56.143Z,4.28
2023-02-03T09:24:58.139Z,4.41
2023-02-03T09:27:58.153Z,4.50
2023-02-03T09:30:58.178Z,4.21
2023-02-03T09:33:59.112Z,4.42
2023-02-03T09:37:01.103Z,3.99
2023-02-03T09:40:01.162Z,4.23
2023-02-03T09:43:26.140Z,3.79
2023-02-03T09:46:33.131Z,3.93
2023-02-03T09:49:47.187Z,3.88
2023-02-03T09:52:52.248Z,4.18
2023-02-03T09:55:57.111Z,4.18
2023-02-03T09:58:59.184Z,5.09
2023-02-03T10:02:31.308Z,5.52
2023-02-03T10:05:55.138Z,5.81
2023-02-03T10:09:04.122Z,5.81
2023-02-03T10:12:34.229Z,6.10
2023-02-03T10:15:54.107Z,5.93
2023-02-03T10:18:59.212Z,5.58
2023-02-03T10:22:03.119Z,4.95
2023-02-03T10:25:42.547Z,5.23
2023-02-03T10:28:56.131Z,5.29
2023-02-03T10:31:57.561Z,4.95
2023-02-03T10:35:02.305Z,4.87
2023-02-03T10:38:05.219Z,5.53
2023-02-03T10:41:05.163Z,5.21
2023-02-03T10:44:11.164Z,5.39
2023-02-03T10:47:11.098Z,4.75
2023-02-03T10:50:18.151Z,4.79
2023-02-03T10:53:47.998Z,5.42
2023-02-03T10:56:53.053Z,5.86
2023-02-03T11:00:06.142Z,6.10
2023-02-03T11:03:26.101Z,6.47
2023-02-03T11:06:33.115Z,6.24
2023-02-03T11:09:53.164Z,6.63
2023-02-03T11:13:36.307Z,7.15
2023-02-03T11:16:40.142Z,6.72
2023-02-03T11:19:40.084Z,6.84
2023-02-03T11:22:47.570Z,6.36
2023-02-03T11:25:47.285Z,6.13
2023-02-03T11:28:47.177Z,5.70
2023-02-03T11:31:54.233Z,5.23
2023-02-03T11:34:54.103Z,5.36
2023-02-03T11:37:55.122Z,5.06
2023-02-03T11:40:55.169Z,4.97
2023-02-03T11:43:55.202Z,4.88
2023-02-03T11:46:59.489Z,5.14
2023-02-03T11:50:22.150Z,5.17
2023-02-03T11:53:56.298Z,5.53
2023-02-03T11:57:23.157Z,5.57
2023-02-03T12:01:02.081Z,5.67
2023-02-03T12:04:17.196Z,4.81
2023-02-03T12:07:17.110Z,5.57
2023-02-03T12:10:43.115Z,5.04
2023-02-03T12:13:45.152Z,5.07
2023-02-03T12:17:15.131Z,4.89
2023-02-03T12:20:23.148Z,4.72
2023-02-03T12:24:08.156Z,4.63
2023-02-03T12:27:16.110Z,4.54
2023-02-03T12:30:38.232Z,4.51
2023-02-03T12:33:50.151Z,4.13
2023-02-03T12:36:54.166Z,3.98
2023-02-03T12:40:16.191Z,4.02
2023-02-03T12:43:44.170Z,3.72
2023-02-03T12:47:02.132Z,3.75
2023-02-03T12:50:10.109Z,3.68
2023-02-03T12:53:37.091Z,3.71
2023-02-03T12:56:41.090Z,3.38
2023-02-03T12:59:44.097Z,3.33
2023-02-03T13:02:56.095Z,3.32
2023-02-03T13:06:13.110Z,3.42
2023-02-03T13:09:19.179Z,3.41
2023-02-03T13:12:25.161Z,3.28
2023-02-03T13:15:39.122Z,3.13
2023-02-03T13:18:42.102Z,3.21
2023-02-03T13:21:42.143Z,3.00
2023-02-03T13:24:43.097Z,3.00
2023-02-03T13:28:08.383Z,3.13
2023-02-03T13:31:29.140Z,3.08
2023-02-03T13:34:43.184Z,2.87
2023-02-03T13:38:05.090Z,2.62
2023-02-03T13:41:17.132Z,2.63
2023-02-03T13:44:17.137Z,2.74
2023-02-03T13:47:17.119Z,2.56
2023-02-03T13:50:21.130Z,2.36
2023-02-03T13:53:36.116Z,2.35
2023-02-03T13:56:40.164Z,2.30
2023-02-03T14:00:12.132Z,2.42
2023-02-03T14:03:12.118Z,2.31
2023-02-03T14:06:13.105Z,2.27
2023-02-03T14:09:13.100Z,1.99
2023-02-03T14:12:36.253Z,1.90
2023-02-03T14:15:41.135Z,1.78
2023-02-03T14:18:49.140Z,1.57
2023-02-03T14:21:54.115Z,1.58
2023-02-03T14:24:57.144Z,1.26
2023-02-03T14:27:57.175Z,1.17
2023-02-03T14:31:22.291Z,1.10
2023-02-03T14:34:27.168Z,0.92
2023-02-03T14:37:53.150Z,0.88
2023-02-03T14:41:16.200Z,0.92
2023-02-03T14:44:55.132Z,0.84
2023-02-03T14:48:07.090Z,0.72
2023-02-03T14:51:35.129Z,0.67
2023-02-03T14:54:53.100Z,0.54
2023-02-03T14:58:01.143Z,0.63
2023-02-03T15:01:02.135Z,0.68
2023-02-03T15:04:27.192Z,0.65
2023-02-03T15:07:53.082Z,0.54
2023-02-03T15:10:53.092Z,0.46
2023-02-03T15:13:53.083Z,0.41
2023-02-03T15:16:56.146Z,0.31
2023-02-03T15:19:56.135Z,0.16
2023-02-03T15:22:56.103Z,0.20
2023-02-03T15:25:56.133Z,0.08
2023-02-03T15:28:56.128Z,0.03
2023-02-03T15:32:02.190Z,-0.14
2023-02-03T15:35:03.090Z,-0.17
2023-02-03T15:38:05.127Z,-0.15
2023-02-03T15:41:08.074Z,-0.18
2023-02-03T15:44:22.073Z,-0.22
2023-02-03T15:47:53.098Z,-0.26
2023-02-03T15:51:00.123Z,-0.30
2023-02-03T15:54:10.105Z,-0.34
2023-02-03T15:57:18.082Z,-0.33
2023-02-03T16:00:36.083Z,-0.35
2023-02-03T16:03:48.156Z,-0.33
2023-02-03T16:06:51.080Z,-0.39
2023-02-03T16:09:55.137Z,-0.41
2023-02-03T16:12:55.082Z,-0.28
2023-02-03T16:15:55.181Z,-0.38
2023-02-03T16:18:55.103Z,-0.26
2023-02-03T16:22:04.085Z,-0.33
2023-02-03T16:25:04.089Z,-0.26
2023-02-03T16:28:47.139Z,-0.30
2023-02-03T16:32:05.183Z,-0.23
2023-02-03T16:35:23.091Z,-0.22
2023-02-03T16:38:48.129Z,-0.36
2023-02-03T16:42:06.095Z,-0.27
2023-02-03T16:45:24.105Z,-0.22
2023-02-03T16:48:43.095Z,-0.23
2023-02-03T16:51:53.096Z,-0.22
2023-02-03T16:54:53.116Z,-0.22
2023-02-03T16:57:53.149Z,-0.35
2023-02-03T17:00:54.175Z,-0.22
2023-02-03T17:03:54.077Z,-0.20
2023-02-03T17:06:58.134Z,-0.19
2023-02-03T17:09:58.152Z,-0.20
2023-02-03T17:12:58.121Z,-0.17
2023-02-03T17:16:00.342Z,-0.18
2023-02-03T17:19:00.077Z,-0.20
2023-02-03T17:22:00.130Z,-0.27
2023-02-03T17:25:00.110Z,-0.18
2023-02-03T17:28:00.196Z,-0.16
2023-02-03T17:31:09.099Z,-0.12
2023-02-03T17:34:09.079Z,-0.20
2023-02-03T17:37:09.079Z,-0.10
2023-02-03T17:53:19.153Z,-0.11
2023-02-03T17:56:16.084Z,-0.07
2023-02-03T17:59:02.048Z,-0.07
2023-02-03T18:02:02.164Z,-0.07
2023-02-03T18:05:02.077Z,-0.11
2023-02-03T18:08:09.006Z,-0.11
2023-02-03T18:11:16.076Z,-0.08
2023-02-03T18:14:17.050Z,-0.02
2023-02-03T18:17:17.017Z,-0.02
2023-02-03T18:20:17.095Z,-0.07
2023-02-03T18:23:17.065Z,-0.02
2023-02-03T18:26:18.179Z,-0.03
2023-02-03T18:29:20.015Z,-0.12
2023-02-03T18:32:20.025Z,0.02
2023-02-03T18:35:23.062Z,0.00
2023-02-03T18:38:23.050Z,0.04
2023-02-03T18:41:27.072Z,-0.01
2023-02-03T18:44:27.080Z,0.02
2023-02-03T18:47:27.079Z,0.03
2023-02-03T18:50:27.101Z,-0.11
2023-02-03T18:53:27.089Z,-0.04
2023-02-03T18:56:31.033Z,-0.03
2023-02-03T18:59:31.085Z,-0.09
2023-02-03T19:02:32.398Z,-0.20
2023-02-03T19:09:53.123Z,-0.01
2023-02-03T19:13:03.653Z,-0.04
2023-02-03T19:16:47.637Z,-0.17
2023-02-03T19:19:48.162Z,-0.03
2023-02-03T19:22:50.127Z,-0.15
2023-02-03T19:25:50.138Z,-0.18
2023-02-03T19:28:51.235Z,-0.05
2023-02-03T19:31:51.198Z,-0.03
2023-02-03T19:34:53.605Z,0.00
2023-02-03T19:37:58.669Z,-0.28
2023-02-03T19:41:08.783Z,-0.24
2023-02-03T19:44:15.708Z,-0.19
2023-02-03T19:47:18.092Z,-0.04
2023-02-03T19:50:45.693Z,-0.01
2023-02-03T19:53:49.636Z,0.08
2023-02-03T19:57:15.780Z,-0.18
2023-02-03T20:00:34.123Z,0.08
2023-02-03T20:03:34.106Z,-0.05
2023-02-03T20:06:34.093Z,0.09
2023-02-03T20:09:34.106Z,0.00
2023-02-03T20:12:34.091Z,0.14
2023-02-03T20:15:34.094Z,0.14
2023-02-03T20:18:34.101Z,0.12
2023-02-03T20:21:34.062Z,0.15
2023-02-03T20:24:34.100Z,0.05
2023-02-03T20:27:34.081Z,0.08
2023-02-03T20:30:34.175Z,0.16
2023-02-03T20:33:34.057Z,0.07
2023-02-03T20:36:34.101Z,0.10
2023-02-03T20:39:34.067Z,0.06
2023-02-03T20:42:34.079Z,0.13
2023-02-03T20:45:36.069Z,0.15
2023-02-03T20:48:36.111Z,0.13
2023-02-03T20:51:36.077Z,0.21
2023-02-03T20:54:36.062Z,0.29
2023-02-03T20:57:36.092Z,0.19
2023-02-03T21:00:39.081Z,0.25
2023-02-03T21:03:57.080Z,0.22
2023-02-03T21:06:57.063Z,0.31
2023-02-03T21:09:57.090Z,0.27
2023-02-03T21:12:57.093Z,0.34
2023-02-03T21:15:57.081Z,0.39
2023-02-03T21:19:06.077Z,0.37
2023-02-03T21:22:06.066Z,0.43
2023-02-03T21:25:08.054Z,0.30
2023-02-03T21:28:08.161Z,0.39
2023-02-03T21:31:08.125Z,0.42
2023-02-03T21:34:32.101Z,0.51
2023-02-03T21:37:35.077Z,0.52
2023-02-03T21:40:38.103Z,0.54
2023-02-03T21:43:38.053Z,0.55
2023-02-03T21:46:42.065Z,0.51
2023-02-03T21:49:42.091Z,0.56
2023-02-03T21:52:42.022Z,0.53
2023-02-03T21:55:42.070Z,0.54
2023-02-03T21:58:45.052Z,0.58
2023-02-03T22:01:49.068Z,0.59
2023-02-03T22:04:49.040Z,0.63
2023-02-03T22:07:49.046Z,0.63
2023-02-03T22:10:49.036Z,0.54
2023-02-03T22:13:49.038Z,0.64
2023-02-03T22:16:49.095Z,0.61
2023-02-03T22:19:49.050Z,0.50
2023-02-03T22:22:42.057Z,0.62
2023-02-03T22:25:28.080Z,0.64
2023-02-03T22:28:28.073Z,0.64
2023-02-03T22:31:29.134Z,0.63
2023-02-03T22:34:30.054Z,0.57
2023-02-03T22:37:30.080Z,0.63
2023-02-03T22:40:31.448Z,0.63
2023-02-03T22:43:31.322Z,0.61
2023-02-03T22:46:31.095Z,0.61
2023-02-03T22:49:31.036Z,0.61
2023-02-03T22:52:31.052Z,0.56
2023-02-03T22:55:31.149Z,0.55
2023-02-03T22:58:31.018Z,0.47
2023-02-03T23:01:31.045Z,0.45
2023-02-03T23:04:31.031Z,0.50
2023-02-03T23:07:31.083Z,0.52
2023-02-03T23:10:38.028Z,0.56
2023-02-03T23:13:39.049Z,0.59
2023-02-03T23:16:39.045Z,0.62
2023-02-03T23:19:39.106Z,0.65
2023-02-03T23:22:39.030Z,0.68
2023-02-03T23:25:39.091Z,0.64
2023-02-03T23:28:39.042Z,0.64
2023-02-03T23:31:39.121Z,0.48
2023-02-03T23:34:58.079Z,0.57
2023-02-03T23:37:58.093Z,0.54
2023-02-03T23:40:58.068Z,0.53
2023-02-03T23:43:58.051Z,0.52
2023-02-03T23:46:58.082Z,0.50
2023-02-03T23:49:58.069Z,0.48
2023-02-03T23:52:59.061Z,0.47
2023-02-03T23:55:59.010Z,0.51
2023-02-03T23:58:59.079Z,0.44
